createdAt,value
2022-09-21T00:02:13.606Z,98853.06
2022-09-21T00:06:18.861Z,98854.00
2022-09-21T00:10:22.011Z,98853.31
2022-09-21T00:14:24.328Z,98848.09
2022-09-21T00:18:26.391Z,98849.69
2022-09-21T00:22:29.066Z,98849.59
2022-09-21T00:26:31.929Z,98853.25
2022-09-21T00:30:33.943Z,98849.31
2022-09-21T00:34:36.676Z,98863.41
2022-09-21T00:38:39.261Z,98857.31
2022-09-21T00:42:41.272Z,98863.31
2022-09-21T00:46:45.102Z,98867.69
2022-09-21T00:50:53.788Z,98872.97
2022-09-21T00:55:06.916Z,98859.91
2022-09-21T00:59:10.080Z,98862.47
2022-09-21T01:03:13.311Z,98861.66
2022-09-21T01:07:20.956Z,98862.66
2022-09-21T01:11:44.329Z,98855.06
2022-09-21T01:15:58.588Z,98864.97
2022-09-21T01:20:25.383Z,98867.78
2022-09-21T01:24:51.110Z,98873.91
2022-09-21T01:29:15.750Z,98871.44
2022-09-21T01:33:29.140Z,98872.41
2022-09-21T01:37:46.778Z,98874.22
2022-09-21T01:41:50.870Z,98883.88
2022-09-21T01:45:57.298Z,98879.75
2022-09-21T01:50:02.923Z,98873.72
2022-09-21T01:54:14.381Z,98880.66
2022-09-21T01:58:26.676Z,98878.13
2022-09-21T02:02:51.614Z,98877.41
2022-09-21T02:06:54.277Z,98869.59
2022-09-21T02:10:56.786Z,98879.91
2022-09-21T02:15:00.595Z,98878.91
2022-09-21T02:19:17.901Z,98875.38
2022-09-21T02:23:27.992Z,98872.81
2022-09-21T02:27:41.627Z,98876.34
2022-09-21T02:31:59.330Z,98872.03
2022-09-21T02:36:11.497Z,98872.06
2022-09-21T02:40:25.858Z,98870.41
2022-09-21T02:44:35.392Z,98865.44
2022-09-21T02:48:43.497Z,98863.66
2022-09-21T02:52:45.597Z,98860.97
2022-09-21T02:56:49.074Z,98861.13
2022-09-21T03:00:51.514Z,98862.13
2022-09-21T03:04:54.090Z,98864.72
2022-09-21T03:08:58.173Z,98864.63
2022-09-21T03:13:01.545Z,98856.91
2022-09-21T03:17:03.718Z,98864.75
2022-09-21T03:21:06.382Z,98869.91
2022-09-21T03:25:13.037Z,98872.53
2022-09-21T03:29:15.417Z,98873.59
2022-09-21T03:33:21.038Z,98878.91
2022-09-21T03:37:23.060Z,98881.59
2022-09-21T03:41:25.044Z,98884.19
2022-09-21T03:45:29.899Z,98877.22
2022-09-21T03:49:32.481Z,98881.47
2022-09-21T03:53:34.464Z,98888.34
2022-09-21T03:57:36.787Z,98883.19
2022-09-21T04:01:38.957Z,98887.53
2022-09-21T04:05:41.024Z,98885.84
2022-09-21T04:09:43.065Z,98894.56
2022-09-21T04:13:50.216Z,98889.31
2022-09-21T04:17:53.256Z,98884.22
2022-09-21T04:21:56.123Z,98898.94
2022-09-21T04:25:58.576Z,98903.38
2022-09-21T04:30:00.704Z,98888.69
2022-09-21T04:34:02.745Z,98891.31
2022-09-21T04:38:04.772Z,98901.63
2022-09-21T04:42:07.123Z,98901.63
2022-09-21T04:46:11.590Z,98898.03
2022-09-21T04:50:14.012Z,98900.59
2022-09-21T04:54:16.680Z,98899.75
2022-09-21T04:58:23.748Z,98906.69
2022-09-21T05:02:26.419Z,98912.88
2022-09-21T05:06:29.840Z,98916.38
2022-09-21T05:10:31.906Z,98926.84
2022-09-21T05:14:33.923Z,98932.94
2022-09-21T05:18:36.214Z,98922.56
2022-09-21T05:22:38.218Z,98932.94
2022-09-21T05:26:40.202Z,98932.00
2022-09-21T05:30:56.213Z,98938.09
2022-09-21T05:35:22.408Z,98938.09
2022-09-21T05:39:24.702Z,98946.72
2022-09-21T05:43:26.998Z,98940.63
2022-09-21T05:47:46.838Z,98944.06
2022-09-21T05:51:55.773Z,98945.72
2022-09-21T05:56:09.056Z,98949.16
2022-09-21T06:00:22.798Z,98948.28
2022-09-21T06:04:25.107Z,98951.66
2022-09-21T06:08:27.292Z,98953.25
2022-09-21T06:12:29.499Z,98951.38
2022-09-21T06:16:42.286Z,98959.88
2022-09-21T06:20:44.306Z,98968.44
2022-09-21T06:24:46.287Z,98969.28
2022-09-21T06:28:48.318Z,98972.63
2022-09-21T06:32:50.297Z,98968.16
2022-09-21T06:36:52.285Z,98966.25
2022-09-21T06:40:54.557Z,98963.16
2022-09-21T06:44:56.680Z,98960.81
2022-09-21T06:48:58.660Z,98959.63
2022-09-21T06:53:01.252Z,98968.22
2022-09-21T06:57:03.374Z,98972.47
2022-09-21T07:01:07.499Z,98964.53
2022-09-21T07:05:09.589Z,98967.88
2022-09-21T07:13:34.024Z,98984.00
2022-09-21T07:17:38.239Z,98980.97
2022-09-21T07:21:40.301Z,98985.72
2022-09-21T07:25:49.738Z,98989.81
2022-09-21T07:29:52.383Z,98986.03
2022-09-21T07:33:58.325Z,98984.03
2022-09-21T07:38:01.587Z,98983.78
2022-09-21T07:42:03.656Z,98984.56
2022-09-21T07:46:07.084Z,98995.91
2022-09-21T07:50:09.677Z,98987.00
2022-09-21T07:54:12.500Z,98985.06
2022-09-21T07:58:33.182Z,98980.44
2022-09-21T08:02:35.201Z,98978.47
2022-09-21T08:06:39.922Z,98972.13
2022-09-21T08:10:42.097Z,98973.53
2022-09-21T08:14:44.399Z,98973.16
2022-09-21T08:18:46.410Z,98977.19
2022-09-21T08:22:48.442Z,98981.34
2022-09-21T08:26:52.143Z,98981.81
2022-09-21T08:30:54.492Z,98981.56
2022-09-21T08:34:56.522Z,98975.97
2022-09-21T08:38:58.648Z,98984.31
2022-09-21T08:43:12.330Z,98986.66
2022-09-21T08:47:14.278Z,98973.16
2022-09-21T08:51:23.165Z,98979.56
2022-09-21T08:55:25.584Z,98975.16
2022-09-21T08:59:28.449Z,98974.19
2022-09-21T09:03:51.961Z,98980.03
2022-09-21T09:08:27.714Z,98973.94
2022-09-21T09:12:53.204Z,98979.75
2022-09-21T09:17:32.815Z,98970.78
2022-09-21T09:21:39.938Z,98978.41
2022-09-21T09:25:43.410Z,98980.22
2022-09-21T09:30:15.372Z,98971.41
2022-09-21T09:34:31.934Z,98971.06
2022-09-21T09:38:40.852Z,98967.41
2022-09-21T09:43:02.548Z,98966.59
2022-09-21T09:47:23.637Z,98971.34
2022-09-21T09:51:26.792Z,98973.81
2022-09-21T09:55:39.839Z,98963.81
2022-09-21T09:59:53.413Z,98966.47
2022-09-21T10:04:17.433Z,98965.44
2022-09-21T10:08:39.160Z,98964.50
2022-09-21T10:12:46.154Z,98960.34
2022-09-21T10:16:51.896Z,98953.34
2022-09-21T10:20:55.181Z,98955.44
2022-09-21T10:25:01.719Z,98952.19
2022-09-21T10:29:31.673Z,98943.75
2022-09-21T10:33:49.222Z,98936.47
2022-09-21T10:38:11.443Z,98942.31
2022-09-21T10:42:18.179Z,98940.94
2022-09-21T10:46:34.227Z,98935.28
2022-09-21T10:50:37.883Z,98933.56
2022-09-21T10:54:41.718Z,98932.03
2022-09-21T10:59:21.737Z,98930.50
2022-09-21T11:03:42.279Z,98935.72
2022-09-21T11:08:10.153Z,98931.63
2022-09-21T11:12:37.117Z,98920.53
2022-09-21T11:17:08.205Z,98930.59
2022-09-21T11:21:20.734Z,98924.34
2022-09-21T11:25:32.377Z,98932.41
2022-09-21T11:29:47.173Z,98919.69
2022-09-21T11:34:02.624Z,98915.84
2022-09-21T11:38:10.847Z,98915.34
2022-09-21T11:42:27.099Z,98915.84
2022-09-21T11:46:33.737Z,98912.44
2022-09-21T11:50:44.383Z,98907.63
2022-09-21T11:54:59.657Z,98898.84
2022-09-21T11:59:29.163Z,98904.41
2022-09-21T12:04:03.459Z,98900.28
2022-09-21T12:08:29.526Z,98891.50
2022-09-21T12:12:59.843Z,98897.28
2022-09-21T12:17:05.947Z,98893.28
2022-09-21T12:21:20.102Z,98893.56
2022-09-21T12:25:31.746Z,98886.78
2022-09-21T12:29:38.041Z,98886.13
2022-09-21T12:33:55.107Z,98875.19
2022-09-21T12:38:12.685Z,98892.78
2022-09-21T12:42:48.944Z,98885.28
2022-09-21T12:47:09.232Z,98882.38
2022-09-21T12:51:32.685Z,98879.69
2022-09-21T12:55:44.376Z,98875.53
2022-09-21T13:00:05.977Z,98871.28
2022-09-21T13:04:26.131Z,98868.81
2022-09-21T13:08:36.664Z,98863.22
2022-09-21T13:12:43.377Z,98862.31
2022-09-21T13:16:54.798Z,98846.13
2022-09-21T13:20:56.986Z,98855.47
2022-09-21T13:25:18.668Z,98858.34
2022-09-21T13:29:26.102Z,98843.56
2022-09-21T13:33:30.735Z,98855.53
2022-09-21T13:37:33.022Z,98849.50
2022-09-21T13:41:58.790Z,98846.88
2022-09-21T13:45:58.222Z,98846.94
2022-09-21T13:50:20.706Z,98840.34
2022-09-21T13:54:50.512Z,98829.94
2022-09-21T13:58:57.234Z,98834.06
2022-09-21T14:03:04.223Z,98831.72
2022-09-21T14:07:07.853Z,98828.56
2022-09-21T14:11:22.347Z,98823.13
2022-09-21T14:15:24.266Z,98818.34
2022-09-21T14:19:33.362Z,98821.78
2022-09-21T14:23:39.144Z,98825.41
2022-09-21T14:27:46.230Z,98813.44
2022-09-21T14:31:52.638Z,98821.44
2022-09-21T14:35:56.578Z,98810.25
2022-09-21T14:40:03.068Z,98798.50
2022-09-21T14:44:05.431Z,98798.31
2022-09-21T14:48:20.910Z,98801.97
2022-09-21T14:52:41.078Z,98805.75
2022-09-21T14:56:51.705Z,98798.34
2022-09-21T15:00:54.564Z,98794.69
2022-09-21T15:05:15.030Z,98778.13
2022-09-21T15:09:52.947Z,98791.19
2022-09-21T15:14:27.998Z,98781.84
2022-09-21T15:18:30.710Z,98786.41
2022-09-21T15:22:32.871Z,98778.44
2022-09-21T15:26:34.933Z,98775.44
2022-09-21T15:30:45.966Z,98768.22
2022-09-21T15:34:49.322Z,98770.19
2022-09-21T15:38:52.713Z,98765.81
2022-09-21T15:43:01.032Z,98763.03
2022-09-21T15:47:07.847Z,98763.13
2022-09-21T15:51:31.591Z,98760.13
2022-09-21T15:55:34.021Z,98763.19
2022-09-21T15:59:36.063Z,98759.25
2022-09-21T16:03:39.857Z,98769.31
2022-09-21T16:07:42.009Z,98767.38
2022-09-21T16:11:44.055Z,98770.53
2022-09-21T16:16:00.665Z,98775.44
2022-09-21T16:20:02.704Z,98768.31
2022-09-21T16:24:22.318Z,98766.44
2022-09-21T16:28:41.678Z,98775.97
2022-09-21T16:32:44.069Z,98771.56
2022-09-21T16:36:49.301Z,98769.53
2022-09-21T16:40:53.977Z,98772.75
2022-09-21T16:44:55.984Z,98772.22
2022-09-21T16:49:00.725Z,98782.34
2022-09-21T16:53:02.750Z,98780.28
2022-09-21T16:57:06.529Z,98779.06
2022-09-21T17:01:12.842Z,98781.44
2022-09-21T17:05:18.080Z,98787.19
2022-09-21T17:09:28.376Z,98784.94
2022-09-21T17:13:31.976Z,98780.22
2022-09-21T17:17:33.974Z,98783.16
2022-09-21T17:21:35.996Z,98785.38
2022-09-21T17:25:38.082Z,98780.63
2022-09-21T17:29:47.164Z,98784.53
2022-09-21T17:33:50.312Z,98785.03
2022-09-21T17:37:52.305Z,98787.38
2022-09-21T17:41:59.039Z,98792.88
2022-09-21T17:46:08.265Z,98791.34
2022-09-21T17:50:13.311Z,98799.47
2022-09-21T17:54:15.652Z,98792.88
2022-09-21T17:59:04.711Z,98809.09
2022-09-21T18:03:40.988Z,98814.09
2022-09-21T18:07:43.354Z,98823.13
2022-09-21T18:11:55.290Z,98820.88
2022-09-21T18:16:19.739Z,98831.72
2022-09-21T18:20:32.092Z,98828.34
2022-09-21T18:24:34.320Z,98832.78
2022-09-21T18:28:43.960Z,98832.03
2022-09-21T18:32:58.139Z,98840.56
2022-09-21T18:37:18.716Z,98844.69
2022-09-21T18:41:36.371Z,98849.22
2022-09-21T18:45:44.200Z,98842.16
2022-09-21T18:49:59.263Z,98846.38
2022-09-21T18:54:01.568Z,98836.16
2022-09-21T18:58:03.907Z,98845.34
2022-09-21T19:02:21.227Z,98843.78
2022-09-21T19:06:42.542Z,98847.41
2022-09-21T19:10:53.894Z,98850.41
2022-09-21T19:15:13.517Z,98844.69
2022-09-21T19:19:18.523Z,98847.72
2022-09-21T19:23:23.424Z,98842.84
2022-09-21T19:27:50.833Z,98844.38
2022-09-21T19:31:52.899Z,98847.41
2022-09-21T19:35:54.985Z,98845.19
2022-09-21T19:39:57.133Z,98841.81
2022-09-21T19:44:36.203Z,98840.47
2022-09-21T19:48:46.843Z,98836.56
2022-09-21T19:52:49.299Z,98838.72
2022-09-21T19:57:09.949Z,98836.75
2022-09-21T20:01:17.899Z,98835.69
2022-09-21T20:05:38.329Z,98844.72
2022-09-21T20:09:45.500Z,98851.91
2022-09-21T20:14:22.737Z,98837.38
2022-09-21T20:18:48.082Z,98839.50
2022-09-21T20:22:50.364Z,98850.31
2022-09-21T20:26:52.570Z,98843.84
2022-09-21T20:30:54.985Z,98845.06
2022-09-21T20:34:57.404Z,98836.25
2022-09-21T20:38:59.934Z,98831.31
2022-09-21T20:43:02.060Z,98835.69
2022-09-21T20:47:04.250Z,98835.66
2022-09-21T20:51:06.319Z,98830.53
2022-09-21T20:55:13.667Z,98831.53
2022-09-21T20:59:15.562Z,98834.56
2022-09-21T21:03:17.526Z,98837.63
2022-09-21T21:07:19.870Z,98839.50
2022-09-21T21:11:22.205Z,98837.88
2022-09-21T21:15:24.708Z,98841.38
2022-09-21T21:19:27.178Z,98836.13
2022-09-21T21:23:30.739Z,98838.72
2022-09-21T21:27:33.059Z,98833.75
2022-09-21T21:31:35.248Z,98834.19
2022-09-21T21:35:37.470Z,98848.31
2022-09-21T21:39:39.962Z,98843.78
2022-09-21T21:43:42.485Z,98847.25
2022-09-21T21:47:44.496Z,98847.34
2022-09-21T21:51:49.121Z,98844.91
2022-09-21T21:55:51.131Z,98840.88
2022-09-21T21:59:53.142Z,98838.53
2022-09-21T22:03:58.336Z,98838.69
2022-09-21T22:08:00.353Z,98846.34
2022-09-21T22:12:03.521Z,98848.00
2022-09-21T22:16:17.566Z,98838.34
2022-09-21T22:20:19.603Z,98839.16
2022-09-21T22:24:22.208Z,98840.88
2022-09-21T22:28:24.185Z,98839.50
2022-09-21T22:32:26.172Z,98832.03
2022-09-21T22:36:33.118Z,98834.78
2022-09-21T22:40:35.187Z,98828.69
2022-09-21T22:44:37.285Z,98828.84
2022-09-21T22:48:39.483Z,98835.16
2022-09-21T22:52:41.495Z,98829.06
2022-09-21T22:56:43.533Z,98825.06
2022-09-21T23:00:45.546Z,98827.81
2022-09-21T23:04:47.568Z,98825.41
2022-09-21T23:08:51.064Z,98815.78
2022-09-21T23:12:53.599Z,98816.59
2022-09-21T23:16:55.581Z,98815.84
2022-09-21T23:20:59.330Z,98818.56
2022-09-21T23:25:01.516Z,98812.50
2022-09-21T23:29:08.913Z,98812.50
2022-09-21T23:33:11.002Z,98810.81
2022-09-21T23:37:13.018Z,98813.50
2022-09-21T23:41:24.069Z,98809.94
2022-09-21T23:45:26.037Z,98814.16
2022-09-21T23:49:28.057Z,98812.44
2022-09-21T23:53:31.004Z,98811.56
2022-09-21T23:57:33.002Z,98818.59
